Linzy — SIRU — position and weather

sailwx.info

Track history (hours):
 
Tides and Currents Weather Stations Pressure Air Temp Water Temp Dewpoint Dewpoint Depression Visibility Wind Speed Wind Dir Waves Ship Positions

Linzy

Last reported at 2015-Aug-30 21:13 UTC. Time now 2015-Aug-30 22:32 UTC.
Position N 55°33' E 014°21'.

Length 15 m.

Type: Fishing. MMSI: 265507290.

Date/timePositionNaut miles runAvg speedWind from/ knotsBaromVisibWave heightAir tempDewpointWater temp
2015-Aug-30 21:13N 55°33' E 014°21'0 0.0
2015-Aug-30 20:31N 55°33' E 014°21'0 0.0
2015-Aug-30 19:31N 55°33' E 014°21'0 0.0
2015-Aug-30 17:31N 55°33' E 014°21'0 0.0
2015-Aug-30 16:31N 55°33' E 014°21'0 0.0
2015-Aug-30 14:13N 55°33' E 014°21'0 0.0
2015-Aug-30 13:31N 55°33' E 014°21'0 0.0
2015-Aug-30 12:31N 55°33' E 014°21'1 1.0
2015-Aug-30 11:33N 55°33' E 014°23'10 8.7
2015-Aug-30 10:27N 55°24' E 014°28'8 8.7
2015-Aug-30 09:33N 55°16' E 014°32'9 8.6
2015-Aug-30 08:32N 55°08' E 014°35'2 2.4
2015-Aug-30 07:33N 55°10' E 014°37'3 3.0
2015-Aug-30 06:33N 55°13' E 014°37'3 3.1
2015-Aug-30 05:33N 55°16' E 014°37'5 4.6
2015-Aug-30 04:33N 55°20' E 014°33'8 7.8
2015-Aug-30 03:33N 55°27' E 014°27'7 7.1
2015-Aug-30 02:33N 55°33' E 014°21'0 0.1
2015-Aug-30 01:32N 55°33' E 014°22'0 0.0
2015-Aug-29 23:26N 55°33' E 014°22'0 0.0
2015-Aug-29 22:32N 55°33' E 014°22'0 0.0
2015-Aug-29 21:26N 55°33' E 014°22'0 0.0
2015-Aug-29 20:32N 55°33' E 014°22'0 0.0
2015-Aug-29 19:32N 55°33' E 014°22'0 0.0
2015-Aug-29 18:32N 55°33' E 014°22'0 0.0
2015-Aug-29 17:26N 55°33' E 014°22'0 0.0
2015-Aug-29 16:32N 55°33' E 014°22'0 0.0
2015-Aug-29 15:26N 55°33' E 014°22'0 0.0
2015-Aug-29 14:20N 55°33' E 014°22'0 0.0
2015-Aug-29 13:26N 55°33' E 014°22'0 0.0
2015-Aug-29 12:32N 55°33' E 014°22'0 0.0
2015-Aug-29 11:32N 55°33' E 014°22'0 0.0
2015-Aug-29 10:26N 55°33' E 014°22'0 0.0
2015-Aug-29 09:32N 55°33' E 014°22'0 0.0
2015-Aug-29 08:32N 55°33' E 014°22'0 0.0
2015-Aug-29 07:32N 55°33' E 014°22'0 0.0
2015-Aug-29 06:32N 55°33' E 014°22'0 0.0
2015-Aug-29 05:32N 55°33' E 014°22'0 0.0
2015-Aug-29 04:32N 55°33' E 014°22'0 0.0
2015-Aug-29 03:26N 55°33' E 014°22'0 0.0
2015-Aug-29 02:32N 55°33' E 014°22'0 0.0
2015-Aug-29 01:32N 55°33' E 014°22'0 0.0
2015-Aug-28 23:32N 55°33' E 014°22'0 0.0
2015-Aug-28 22:32N 55°33' E 014°22'0 0.0
2015-Aug-28 21:32N 55°33' E 014°22'0 0.0
2015-Aug-28 20:32N 55°33' E 014°22'0 0.0
2015-Aug-28 19:32N 55°33' E 014°22'0 0.0
2015-Aug-28 18:32N 55°33' E 014°22'0 0.0
2015-Aug-28 17:32N 55°33' E 014°22'0 0.0
2015-Aug-28 16:32N 55°33' E 014°22'0 0.0
2015-Aug-28 15:32N 55°33' E 014°22'0 0.0
2015-Aug-28 14:26N 55°33' E 014°22'0 0.0
2015-Aug-28 11:32N 55°33' E 014°22'0 0.0
2015-Aug-28 05:14N 55°33' E 014°22'0 0.0
2015-Aug-27 20:14N 55°33' E 014°22'0 0.0
2015-Aug-27 19:32N 55°33' E 014°22'0 0.0
2015-Aug-27 18:26N 55°33' E 014°22'0 0.0
2015-Aug-27 15:20N 55°33' E 014°22'0 0.0
2015-Aug-27 14:26N 55°33' E 014°22'0 0.0
2015-Aug-27 11:26N 55°33' E 014°22'0 0.0
2015-Aug-27 09:26N 55°33' E 014°22'0 0.0
2015-Aug-27 08:32N 55°33' E 014°22'0 0.0
2015-Aug-27 07:32N 55°33' E 014°22'0 0.0
2015-Aug-27 06:26N 55°33' E 014°22'0 0.0
2015-Aug-27 05:33N 55°33' E 014°22'0 0.0
2015-Aug-27 04:20N 55°33' E 014°22'0 0.0
2015-Aug-27 03:20N 55°33' E 014°22'0 0.0
2015-Aug-27 02:33N 55°33' E 014°22'0 0.0
2015-Aug-27 01:33N 55°33' E 014°22'0 0.0
2015-Aug-27 00:33N 55°33' E 014°22'0 0.0
2015-Aug-26 23:33N 55°33' E 014°22'0 0.0
2015-Aug-26 22:21N 55°33' E 014°22'0 0.0
2015-Aug-26 20:33N 55°33' E 014°22'0 0.0
2015-Aug-26 19:33N 55°33' E 014°22'0 0.0
2015-Aug-26 17:33N 55°33' E 014°21'0 0.0
2015-Aug-26 16:33N 55°33' E 014°22'0 0.0
2015-Aug-26 15:33N 55°33' E 014°22'0 0.0
2015-Aug-26 14:33N 55°33' E 014°22'0 0.0
2015-Aug-26 13:27N 55°33' E 014°22'0 0.0
2015-Aug-26 12:33N 55°33' E 014°22'0 0.0
2015-Aug-26 11:21N 55°33' E 014°22'0 0.0
2015-Aug-26 10:33N 55°33' E 014°22'0 0.0
2015-Aug-26 09:33N 55°33' E 014°22'0 0.0
2015-Aug-26 08:33N 55°33' E 014°22'0 0.0
2015-Aug-26 07:27N 55°33' E 014°22'0 0.0
2015-Aug-26 06:27N 55°33' E 014°22'0 0.0
2015-Aug-26 05:33N 55°33' E 014°22'0 0.0
2015-Aug-26 04:33N 55°33' E 014°22'0 0.0
2015-Aug-26 03:21N 55°33' E 014°22'0 0.0
2015-Aug-26 02:33N 55°33' E 014°22'0 0.0
2015-Aug-26 01:33N 55°33' E 014°22'0 0.0
2015-Aug-25 23:27N 55°33' E 014°22'0 0.0
2015-Aug-25 22:33N 55°33' E 014°22'0 0.0
2015-Aug-25 21:33N 55°33' E 014°22'0 0.0
2015-Aug-25 20:33N 55°33' E 014°22'0 0.0
2015-Aug-25 19:33N 55°33' E 014°22'0 0.0
2015-Aug-25 17:21N 55°33' E 014°22'0 0.0
2015-Aug-25 16:27N 55°33' E 014°22'0 0.0
2015-Aug-25 15:33N 55°33' E 014°22'0 0.0
2015-Aug-25 14:21N 55°33' E 014°22'0 0.0
2015-Aug-25 13:21N 55°33' E 014°22'0 0.0
2015-Aug-25 12:21N 55°33' E 014°22'0 0.0
2015-Aug-25 11:27N 55°33' E 014°22'0 0.0
2015-Aug-25 10:33N 55°33' E 014°22'0 0.0
2015-Aug-25 09:33N 55°33' E 014°22'0 0.0
2015-Aug-25 08:33N 55°33' E 014°22'0 0.0
2015-Aug-25 06:33N 55°33' E 014°22'0 0.0
2015-Aug-25 05:33N 55°33' E 014°21'0 0.0
2015-Aug-25 04:33N 55°33' E 014°22'0 0.0
2015-Aug-25 03:33N 55°33' E 014°22'0 0.0
2015-Aug-25 02:33N 55°33' E 014°22'0 0.0
2015-Aug-25 01:27N 55°33' E 014°22'0 0.0
2015-Aug-25 00:33N 55°33' E 014°22'0 0.0
2015-Aug-24 23:33N 55°33' E 014°22'0 0.0
2015-Aug-24 22:33N 55°33' E 014°22'0 0.0
2015-Aug-24 21:33N 55°33' E 014°22'0 0.0
2015-Aug-24 20:21N 55°33' E 014°22'0 0.0
2015-Aug-24 19:33N 55°33' E 014°22'0 0.0
2015-Aug-24 18:33N 55°33' E 014°22'0 0.0
2015-Aug-24 17:33N 55°33' E 014°22'0 0.0
2015-Aug-24 16:27N 55°33' E 014°22'0 0.0
2015-Aug-24 15:33N 55°33' E 014°22'0 0.0
2015-Aug-24 14:33N 55°33' E 014°22'0 0.0
2015-Aug-24 13:33N 55°33' E 014°22'0 0.0
2015-Aug-24 12:21N 55°33' E 014°22'0 0.0
2015-Aug-24 11:33N 55°33' E 014°22'0 0.0
2015-Aug-24 10:27N 55°33' E 014°22'0 0.0
2015-Aug-24 09:33N 55°33' E 014°22'0 0.0
2015-Aug-24 08:33N 55°33' E 014°22'0 0.0
2015-Aug-24 07:21N 55°33' E 014°22'0 0.0
2015-Aug-24 06:33N 55°33' E 014°22'0 0.0
2015-Aug-24 05:33N 55°33' E 014°22'0 0.0
2015-Aug-24 04:27N 55°33' E 014°22'0 0.0
2015-Aug-24 03:27N 55°33' E 014°22'0 0.0
2015-Aug-24 02:33N 55°33' E 014°22'0 0.0
2015-Aug-24 01:27N 55°33' E 014°22'0 0.0
2015-Aug-24 00:33N 55°33' E 014°22'0 0.0
2015-Aug-23 22:21N 55°33' E 014°22'0 0.0
2015-Aug-23 21:33N 55°33' E 014°22'0 0.0
2015-Aug-23 20:33N 55°33' E 014°22'0 0.0
2015-Aug-23 19:33N 55°33' E 014°22'0 0.0
2015-Aug-23 18:33N 55°33' E 014°22'0 0.0
2015-Aug-23 17:33N 55°33' E 014°22'0 0.0
2015-Aug-23 16:15N 55°33' E 014°22'0 0.0
2015-Aug-23 15:33N 55°33' E 014°22'0 0.0
2015-Aug-23 14:33N 55°33' E 014°22'0 0.0
2015-Aug-23 13:27N 55°33' E 014°22'0 0.0
2015-Aug-23 12:33N 55°33' E 014°22'0 0.0
2015-Aug-23 11:28N 55°33' E 014°22'0 0.0
2015-Aug-23 10:31N 55°33' E 014°22'0 0.0
2015-Aug-23 07:19N 55°33' E 014°22'0 0.0
2015-Aug-23 05:25N 55°33' E 014°22'0 0.0
2015-Aug-23 04:13N 55°33' E 014°22'0 0.0
2015-Aug-23 03:31N 55°33' E 014°22'0 0.0
2015-Aug-23 01:13N 55°33' E 014°22'0 0.0
2015-Aug-22 19:24N 55°33' E 014°22'0 0.0
2015-Aug-22 18:24N 55°33' E 014°22'0 0.0
2015-Aug-22 17:30N 55°33' E 014°22'0 0.0
2015-Aug-22 16:18N 55°33' E 014°22'0 0.0
2015-Aug-22 15:25N 55°33' E 014°22'0 0.0
2015-Aug-22 12:28N 55°33' E 014°22'0 0.0
2015-Aug-22 11:28N 55°33' E 014°22'0 0.0
2015-Aug-22 10:28N 55°33' E 014°22'0 0.0
2015-Aug-22 09:28N 55°33' E 014°22'0 0.0
2015-Aug-22 08:22N 55°33' E 014°22'0 0.0
2015-Aug-22 07:28N 55°33' E 014°22'0 0.0
2015-Aug-22 06:16N 55°33' E 014°22'0 0.0
2015-Aug-22 05:22N 55°33' E 014°22'0 0.0
2015-Aug-22 04:22N 55°33' E 014°22'0 0.0
2015-Aug-22 03:04N 55°33' E 014°22'0 0.0
2015-Aug-22 02:28N 55°33' E 014°22'0 0.0
2015-Aug-21 23:28N 55°33' E 014°22'0 0.0
2015-Aug-21 22:32N 55°33' E 014°22'0 0.0
2015-Aug-21 21:32N 55°33' E 014°22'0 0.0
2015-Aug-21 20:32N 55°33' E 014°21'0 0.0
2015-Aug-21 19:26N 55°33' E 014°21'0 0.0
2015-Aug-21 18:26N 55°33' E 014°22'0 0.0
2015-Aug-21 17:20N 55°33' E 014°22'0 0.0
2015-Aug-21 16:32N 55°33' E 014°22'0 0.0
2015-Aug-21 15:20N 55°33' E 014°22'0 0.0
2015-Aug-21 14:26N 55°33' E 014°22'0 0.0
2015-Aug-21 13:14N 55°33' E 014°22'0 0.0
2015-Aug-21 12:32N 55°33' E 014°22'0 0.0
2015-Aug-21 11:26N 55°33' E 014°22'0 0.0
2015-Aug-21 10:26N 55°33' E 014°22'0 0.0
2015-Aug-21 09:32N 55°33' E 014°22'0 0.0
2015-Aug-21 08:14N 55°33' E 014°21'0 0.0
2015-Aug-21 06:20N 55°33' E 014°22'0 0.0
2015-Aug-21 05:20N 55°33' E 014°21'0 0.0
2015-Aug-21 04:20N 55°33' E 014°21'0 0.0
2015-Aug-21 03:26N 55°33' E 014°21'0 0.0
2015-Aug-21 02:08N 55°33' E 014°21'0 0.0
2015-Aug-21 01:26N 55°33' E 014°21'0 0.0
2015-Aug-20 23:26N 55°33' E 014°22'0 0.0
2015-Aug-20 22:32N 55°33' E 014°21'0 0.0
2015-Aug-20 21:26N 55°33' E 014°22'  
Track history (hours):
 
Tides and Currents Weather Stations Pressure Air Temp Water Temp Dewpoint Dewpoint Depression Visibility Wind Speed Wind Dir Waves Ship Positions

Linzy

Last reported at 2015-Aug-30 21:13 UTC. Time now 2015-Aug-30 22:32 UTC.
Position N 55°33' E 014°21'.

Length 15 m.

Type: Fishing. MMSI: 265507290.

Date/timePositionNaut miles runAvg speedWind from/ knotsBaromVisibWave heightAir tempDewpointWater temp
2015-Aug-30 21:13N 55°33' E 014°21'0 0.0
2015-Aug-30 20:31N 55°33' E 014°21'0 0.0
2015-Aug-30 19:31N 55°33' E 014°21'0 0.0
2015-Aug-30 17:31N 55°33' E 014°21'0 0.0
2015-Aug-30 16:31N 55°33' E 014°21'0 0.0
2015-Aug-30 14:13N 55°33' E 014°21'0 0.0
2015-Aug-30 13:31N 55°33' E 014°21'0 0.0
2015-Aug-30 12:31N 55°33' E 014°21'1 1.0
2015-Aug-30 11:33N 55°33' E 014°23'10 8.7
2015-Aug-30 10:27N 55°24' E 014°28'8 8.7
2015-Aug-30 09:33N 55°16' E 014°32'9 8.6
2015-Aug-30 08:32N 55°08' E 014°35'2 2.4
2015-Aug-30 07:33N 55°10' E 014°37'3 3.0
2015-Aug-30 06:33N 55°13' E 014°37'3 3.1
2015-Aug-30 05:33N 55°16' E 014°37'5 4.6
2015-Aug-30 04:33N 55°20' E 014°33'8 7.8
2015-Aug-30 03:33N 55°27' E 014°27'7 7.1
2015-Aug-30 02:33N 55°33' E 014°21'0 0.1
2015-Aug-30 01:32N 55°33' E 014°22'0 0.0
2015-Aug-29 23:26N 55°33' E 014°22'0 0.0
2015-Aug-29 22:32N 55°33' E 014°22'0 0.0
2015-Aug-29 21:26N 55°33' E 014°22'0 0.0
2015-Aug-29 20:32N 55°33' E 014°22'0 0.0
2015-Aug-29 19:32N 55°33' E 014°22'0 0.0
2015-Aug-29 18:32N 55°33' E 014°22'0 0.0
2015-Aug-29 17:26N 55°33' E 014°22'0 0.0
2015-Aug-29 16:32N 55°33' E 014°22'0 0.0
2015-Aug-29 15:26N 55°33' E 014°22'0 0.0
2015-Aug-29 14:20N 55°33' E 014°22'0 0.0
2015-Aug-29 13:26N 55°33' E 014°22'0 0.0
2015-Aug-29 12:32N 55°33' E 014°22'0 0.0
2015-Aug-29 11:32N 55°33' E 014°22'0 0.0
2015-Aug-29 10:26N 55°33' E 014°22'0 0.0
2015-Aug-29 09:32N 55°33' E 014°22'0 0.0
2015-Aug-29 08:32N 55°33' E 014°22'0 0.0
2015-Aug-29 07:32N 55°33' E 014°22'0 0.0
2015-Aug-29 06:32N 55°33' E 014°22'0 0.0
2015-Aug-29 05:32N 55°33' E 014°22'0 0.0
2015-Aug-29 04:32N 55°33' E 014°22'0 0.0
2015-Aug-29 03:26N 55°33' E 014°22'0 0.0
2015-Aug-29 02:32N 55°33' E 014°22'0 0.0
2015-Aug-29 01:32N 55°33' E 014°22'0 0.0
2015-Aug-28 23:32N 55°33' E 014°22'0 0.0
2015-Aug-28 22:32N 55°33' E 014°22'0 0.0
2015-Aug-28 21:32N 55°33' E 014°22'0 0.0
2015-Aug-28 20:32N 55°33' E 014°22'0 0.0
2015-Aug-28 19:32N 55°33' E 014°22'0 0.0
2015-Aug-28 18:32N 55°33' E 014°22'0 0.0
2015-Aug-28 17:32N 55°33' E 014°22'0 0.0
2015-Aug-28 16:32N 55°33' E 014°22'0 0.0
2015-Aug-28 15:32N 55°33' E 014°22'0 0.0
2015-Aug-28 14:26N 55°33' E 014°22'0 0.0
2015-Aug-28 11:32N 55°33' E 014°22'0 0.0
2015-Aug-28 05:14N 55°33' E 014°22'0 0.0
2015-Aug-27 20:14N 55°33' E 014°22'0 0.0
2015-Aug-27 19:32N 55°33' E 014°22'0 0.0
2015-Aug-27 18:26N 55°33' E 014°22'0 0.0
2015-Aug-27 15:20N 55°33' E 014°22'0 0.0
2015-Aug-27 14:26N 55°33' E 014°22'0 0.0
2015-Aug-27 11:26N 55°33' E 014°22'0 0.0
2015-Aug-27 09:26N 55°33' E 014°22'0 0.0
2015-Aug-27 08:32N 55°33' E 014°22'0 0.0
2015-Aug-27 07:32N 55°33' E 014°22'0 0.0
2015-Aug-27 06:26N 55°33' E 014°22'0 0.0
2015-Aug-27 05:33N 55°33' E 014°22'0 0.0
2015-Aug-27 04:20N 55°33' E 014°22'0 0.0
2015-Aug-27 03:20N 55°33' E 014°22'0 0.0
2015-Aug-27 02:33N 55°33' E 014°22'0 0.0
2015-Aug-27 01:33N 55°33' E 014°22'0 0.0
2015-Aug-27 00:33N 55°33' E 014°22'0 0.0
2015-Aug-26 23:33N 55°33' E 014°22'0 0.0
2015-Aug-26 22:21N 55°33' E 014°22'0 0.0
2015-Aug-26 20:33N 55°33' E 014°22'0 0.0
2015-Aug-26 19:33N 55°33' E 014°22'0 0.0
2015-Aug-26 17:33N 55°33' E 014°21'0 0.0
2015-Aug-26 16:33N 55°33' E 014°22'0 0.0
2015-Aug-26 15:33N 55°33' E 014°22'0 0.0
2015-Aug-26 14:33N 55°33' E 014°22'0 0.0
2015-Aug-26 13:27N 55°33' E 014°22'0 0.0
2015-Aug-26 12:33N 55°33' E 014°22'0 0.0
2015-Aug-26 11:21N 55°33' E 014°22'0 0.0
2015-Aug-26 10:33N 55°33' E 014°22'0 0.0
2015-Aug-26 09:33N 55°33' E 014°22'0 0.0
2015-Aug-26 08:33N 55°33' E 014°22'0 0.0
2015-Aug-26 07:27N 55°33' E 014°22'0 0.0
2015-Aug-26 06:27N 55°33' E 014°22'0 0.0
2015-Aug-26 05:33N 55°33' E 014°22'0 0.0
2015-Aug-26 04:33N 55°33' E 014°22'0 0.0
2015-Aug-26 03:21N 55°33' E 014°22'0 0.0
2015-Aug-26 02:33N 55°33' E 014°22'0 0.0
2015-Aug-26 01:33N 55°33' E 014°22'0 0.0
2015-Aug-25 23:27N 55°33' E 014°22'0 0.0
2015-Aug-25 22:33N 55°33' E 014°22'0 0.0
2015-Aug-25 21:33N 55°33' E 014°22'0 0.0
2015-Aug-25 20:33N 55°33' E 014°22'0 0.0
2015-Aug-25 19:33N 55°33' E 014°22'0 0.0
2015-Aug-25 17:21N 55°33' E 014°22'0 0.0
2015-Aug-25 16:27N 55°33' E 014°22'0 0.0
2015-Aug-25 15:33N 55°33' E 014°22'0 0.0
2015-Aug-25 14:21N 55°33' E 014°22'0 0.0
2015-Aug-25 13:21N 55°33' E 014°22'0 0.0
2015-Aug-25 12:21N 55°33' E 014°22'0 0.0
2015-Aug-25 11:27N 55°33' E 014°22'0 0.0
2015-Aug-25 10:33N 55°33' E 014°22'0 0.0
2015-Aug-25 09:33N 55°33' E 014°22'0 0.0
2015-Aug-25 08:33N 55°33' E 014°22'0 0.0
2015-Aug-25 06:33N 55°33' E 014°22'0 0.0
2015-Aug-25 05:33N 55°33' E 014°21'0 0.0
2015-Aug-25 04:33N 55°33' E 014°22'0 0.0
2015-Aug-25 03:33N 55°33' E 014°22'0 0.0
2015-Aug-25 02:33N 55°33' E 014°22'0 0.0
2015-Aug-25 01:27N 55°33' E 014°22'0 0.0
2015-Aug-25 00:33N 55°33' E 014°22'0 0.0
2015-Aug-24 23:33N 55°33' E 014°22'0 0.0
2015-Aug-24 22:33N 55°33' E 014°22'0 0.0
2015-Aug-24 21:33N 55°33' E 014°22'0 0.0
2015-Aug-24 20:21N 55°33' E 014°22'0 0.0
2015-Aug-24 19:33N 55°33' E 014°22'0 0.0
2015-Aug-24 18:33N 55°33' E 014°22'0 0.0
2015-Aug-24 17:33N 55°33' E 014°22'0 0.0
2015-Aug-24 16:27N 55°33' E 014°22'0 0.0
2015-Aug-24 15:33N 55°33' E 014°22'0 0.0
2015-Aug-24 14:33N 55°33' E 014°22'0 0.0
2015-Aug-24 13:33N 55°33' E 014°22'0 0.0
2015-Aug-24 12:21N 55°33' E 014°22'0 0.0
2015-Aug-24 11:33N 55°33' E 014°22'0 0.0
2015-Aug-24 10:27N 55°33' E 014°22'0 0.0
2015-Aug-24 09:33N 55°33' E 014°22'0 0.0
2015-Aug-24 08:33N 55°33' E 014°22'0 0.0
2015-Aug-24 07:21N 55°33' E 014°22'0 0.0
2015-Aug-24 06:33N 55°33' E 014°22'0 0.0
2015-Aug-24 05:33N 55°33' E 014°22'0 0.0
2015-Aug-24 04:27N 55°33' E 014°22'0 0.0
2015-Aug-24 03:27N 55°33' E 014°22'0 0.0
2015-Aug-24 02:33N 55°33' E 014°22'0 0.0
2015-Aug-24 01:27N 55°33' E 014°22'0 0.0
2015-Aug-24 00:33N 55°33' E 014°22'0 0.0
2015-Aug-23 22:21N 55°33' E 014°22'0 0.0
2015-Aug-23 21:33N 55°33' E 014°22'0 0.0
2015-Aug-23 20:33N 55°33' E 014°22'0 0.0
2015-Aug-23 19:33N 55°33' E 014°22'0 0.0
2015-Aug-23 18:33N 55°33' E 014°22'0 0.0
2015-Aug-23 17:33N 55°33' E 014°22'0 0.0
2015-Aug-23 16:15N 55°33' E 014°22'0 0.0
2015-Aug-23 15:33N 55°33' E 014°22'0 0.0
2015-Aug-23 14:33N 55°33' E 014°22'0 0.0
2015-Aug-23 13:27N 55°33' E 014°22'0 0.0
2015-Aug-23 12:33N 55°33' E 014°22'0 0.0
2015-Aug-23 11:28N 55°33' E 014°22'0 0.0
2015-Aug-23 10:31N 55°33' E 014°22'0 0.0
2015-Aug-23 07:19N 55°33' E 014°22'0 0.0
2015-Aug-23 05:25N 55°33' E 014°22'0 0.0
2015-Aug-23 04:13N 55°33' E 014°22'0 0.0
2015-Aug-23 03:31N 55°33' E 014°22'0 0.0
2015-Aug-23 01:13N 55°33' E 014°22'0 0.0
2015-Aug-22 19:24N 55°33' E 014°22'0 0.0
2015-Aug-22 18:24N 55°33' E 014°22'0 0.0
2015-Aug-22 17:30N 55°33' E 014°22'0 0.0
2015-Aug-22 16:18N 55°33' E 014°22'0 0.0
2015-Aug-22 15:25N 55°33' E 014°22'0 0.0
2015-Aug-22 12:28N 55°33' E 014°22'0 0.0
2015-Aug-22 11:28N 55°33' E 014°22'0 0.0
2015-Aug-22 10:28N 55°33' E 014°22'0 0.0
2015-Aug-22 09:28N 55°33' E 014°22'0 0.0
2015-Aug-22 08:22N 55°33' E 014°22'0 0.0
2015-Aug-22 07:28N 55°33' E 014°22'0 0.0
2015-Aug-22 06:16N 55°33' E 014°22'0 0.0
2015-Aug-22 05:22N 55°33' E 014°22'0 0.0
2015-Aug-22 04:22N 55°33' E 014°22'0 0.0
2015-Aug-22 03:04N 55°33' E 014°22'0 0.0
2015-Aug-22 02:28N 55°33' E 014°22'0 0.0
2015-Aug-21 23:28N 55°33' E 014°22'0 0.0
2015-Aug-21 22:32N 55°33' E 014°22'0 0.0
2015-Aug-21 21:32N 55°33' E 014°22'0 0.0
2015-Aug-21 20:32N 55°33' E 014°21'0 0.0
2015-Aug-21 19:26N 55°33' E 014°21'0 0.0
2015-Aug-21 18:26N 55°33' E 014°22'0 0.0
2015-Aug-21 17:20N 55°33' E 014°22'0 0.0
2015-Aug-21 16:32N 55°33' E 014°22'0 0.0
2015-Aug-21 15:20N 55°33' E 014°22'0 0.0
2015-Aug-21 14:26N 55°33' E 014°22'0 0.0
2015-Aug-21 13:14N 55°33' E 014°22'0 0.0
2015-Aug-21 12:32N 55°33' E 014°22'0 0.0
2015-Aug-21 11:26N 55°33' E 014°22'0 0.0
2015-Aug-21 10:26N 55°33' E 014°22'0 0.0
2015-Aug-21 09:32N 55°33' E 014°22'0 0.0
2015-Aug-21 08:14N 55°33' E 014°21'0 0.0
2015-Aug-21 06:20N 55°33' E 014°22'0 0.0
2015-Aug-21 05:20N 55°33' E 014°21'0 0.0
2015-Aug-21 04:20N 55°33' E 014°21'0 0.0
2015-Aug-21 03:26N 55°33' E 014°21'0 0.0
2015-Aug-21 02:08N 55°33' E 014°21'0 0.0
2015-Aug-21 01:26N 55°33' E 014°21'0 0.0
2015-Aug-20 23:26N 55°33' E 014°22'0 0.0
2015-Aug-20 22:32N 55°33' E 014°21'0 0.0
2015-Aug-20 21:26N 55°33' E 014°22'  

Dump ship's entire track history